createdAt,value
2023-11-18T00:00:17.778Z,20.49
2023-11-18T00:02:48.052Z,20.51
2023-11-18T00:05:17.139Z,20.49
2023-11-18T00:07:44.823Z,20.48
2023-11-18T00:10:12.495Z,20.39
2023-11-18T00:12:43.153Z,20.43
2023-11-18T00:15:12.874Z,20.42
2023-11-18T00:17:40.553Z,20.50
2023-11-18T00:20:13.637Z,20.45
2023-11-18T00:22:42.857Z,20.44
2023-11-18T00:25:10.676Z,20.44
2023-11-18T00:27:41.057Z,20.37
2023-11-18T00:30:14.331Z,20.41
2023-11-18T00:32:42.124Z,20.40
2023-11-18T00:35:11.899Z,20.42
2023-11-18T00:37:39.359Z,20.44
2023-11-18T00:40:09.073Z,20.43
2023-11-18T00:42:38.924Z,20.47
2023-11-18T00:45:06.764Z,20.47
2023-11-18T00:47:34.917Z,20.52
2023-11-18T00:50:04.147Z,20.51
2023-11-18T00:52:31.473Z,20.49
2023-11-18T00:54:58.621Z,20.49
2023-11-18T00:57:25.739Z,20.50
2023-11-18T00:59:58.932Z,20.51
2023-11-18T01:02:26.172Z,20.49
2023-11-18T01:04:53.836Z,20.46
2023-11-18T01:07:21.043Z,20.46
2023-11-18T01:09:48.165Z,20.47
2023-11-18T01:12:15.461Z,20.47
2023-11-18T01:14:43.268Z,20.42
2023-11-18T01:17:10.697Z,20.44
2023-11-18T01:19:37.842Z,20.45
2023-11-18T01:22:07.876Z,20.41
2023-11-18T01:24:35.295Z,20.46
2023-11-18T01:27:03.161Z,20.43
2023-11-18T01:29:30.468Z,20.44
2023-11-18T01:31:59.869Z,20.47
2023-11-18T01:34:29.449Z,20.43
2023-11-18T01:36:58.090Z,20.41
2023-11-18T01:39:26.709Z,20.40
2023-11-18T01:41:53.893Z,20.41
2023-11-18T01:44:21.492Z,20.40
2023-11-18T01:46:49.087Z,20.34
2023-11-18T01:49:16.566Z,20.35
2023-11-18T01:51:47.041Z,20.35
2023-11-18T01:54:20.557Z,20.34
2023-11-18T01:56:49.673Z,20.32
2023-11-18T01:59:20.384Z,20.34
2023-11-18T02:01:55.588Z,20.30
2023-11-18T02:04:23.338Z,20.28
2023-11-18T02:06:51.392Z,20.23
2023-11-18T02:09:30.558Z,20.17
2023-11-18T02:12:51.994Z,20.07
2023-11-18T02:15:22.218Z,20.04
2023-11-18T02:17:51.301Z,20.02
2023-11-18T02:20:22.553Z,20.02
2023-11-18T02:22:50.146Z,20.02
2023-11-18T02:25:19.837Z,20.01
2023-11-18T02:27:47.382Z,20.01
2023-11-18T02:30:18.896Z,19.96
2023-11-18T02:32:49.770Z,19.93
2023-11-18T02:35:27.233Z,19.91
2023-11-18T02:37:56.573Z,19.92
2023-11-18T02:40:42.238Z,19.88
2023-11-18T02:43:11.671Z,19.88
2023-11-18T02:45:39.833Z,19.93
2023-11-18T02:48:08.309Z,19.90
2023-11-18T02:50:37.551Z,19.93
2023-11-18T02:53:06.583Z,19.91
2023-11-18T02:55:34.079Z,19.90
2023-11-18T02:58:06.681Z,19.93
2023-11-18T03:00:35.327Z,19.96
2023-11-18T03:03:04.425Z,19.97
2023-11-18T03:05:32.437Z,19.95
2023-11-18T03:07:59.874Z,19.97
2023-11-18T03:10:27.704Z,19.97
2023-11-18T03:12:55.626Z,19.95
2023-11-18T03:15:25.842Z,19.96
2023-11-18T03:17:53.506Z,19.97
2023-11-18T03:20:24.407Z,19.92
2023-11-18T03:22:53.271Z,19.96
2023-11-18T03:25:23.489Z,19.95
2023-11-18T03:27:51.117Z,19.90
2023-11-18T03:30:18.500Z,19.90
2023-11-18T03:32:46.738Z,19.91
2023-11-18T03:35:14.132Z,19.92
2023-11-18T03:37:45.295Z,19.93
2023-11-18T03:40:16.112Z,19.89
2023-11-18T03:42:43.887Z,19.91
2023-11-18T03:45:11.693Z,19.86
2023-11-18T03:47:39.586Z,19.84
2023-11-18T03:50:09.689Z,19.80
2023-11-18T03:52:40.150Z,19.68
2023-11-18T03:55:08.220Z,19.65
2023-11-18T03:57:38.027Z,19.63
2023-11-18T04:00:05.810Z,19.64
2023-11-18T04:02:58.328Z,19.66
2023-11-18T04:05:38.528Z,19.64
2023-11-18T04:08:23.526Z,19.55
2023-11-18T04:11:47.617Z,19.53
2023-11-18T04:14:47.733Z,19.52
2023-11-18T04:18:19.466Z,19.49
2023-11-18T04:22:11.580Z,19.40
2023-11-18T04:25:38.079Z,19.39
2023-11-18T04:29:07.893Z,19.35
2023-11-18T04:43:42.780Z,19.15
2023-11-18T04:51:04.283Z,19.16
2023-11-18T04:54:49.411Z,19.11
2023-11-18T04:58:35.043Z,19.12
2023-11-18T05:01:47.165Z,19.06
2023-11-18T05:04:51.817Z,19.09
2023-11-18T05:10:56.906Z,19.07
2023-11-18T05:13:33.683Z,19.12
2023-11-18T05:17:00.432Z,19.13
2023-11-18T05:23:15.825Z,19.14
2023-11-18T05:31:08.856Z,19.14
2023-11-18T05:35:02.838Z,19.19
2023-11-18T05:37:50.107Z,19.15
2023-11-18T05:40:48.942Z,19.15
2023-11-18T05:44:56.526Z,19.22
2023-11-18T05:48:24.627Z,19.20
2023-11-18T05:55:52.794Z,19.21
2023-11-18T06:02:23.225Z,19.30
2023-11-18T06:08:49.312Z,19.33
2023-11-18T06:16:08.551Z,19.38
2023-11-18T06:19:24.129Z,19.32
2023-11-18T06:28:55.648Z,19.35
2023-11-18T06:31:43.483Z,19.42
2023-11-18T06:35:17.813Z,19.41
2023-11-18T06:38:05.043Z,19.44
2023-11-18T06:41:27.837Z,19.38
2023-11-18T06:47:57.722Z,19.40
2023-11-18T06:50:48.800Z,19.38
2023-11-18T06:53:37.513Z,19.34
2023-11-18T07:06:24.910Z,19.35
2023-11-18T07:10:26.984Z,19.37
2023-11-18T07:13:16.387Z,19.36
2023-11-18T07:16:17.774Z,19.38
2023-11-18T07:19:56.522Z,19.43
2023-11-18T07:23:35.972Z,19.48
2023-11-18T07:38:50.285Z,19.68
2023-11-18T07:42:38.079Z,19.70
2023-11-18T07:46:22.117Z,19.76
2023-11-18T07:49:21.596Z,19.84
2023-11-18T07:52:57.430Z,19.93
2023-11-18T07:55:51.653Z,19.91
2023-11-18T07:58:52.387Z,19.98
2023-11-18T08:01:57.168Z,19.96
2023-11-18T08:05:26.775Z,20.08
2023-11-18T08:09:00.457Z,20.03
2023-11-18T08:14:55.142Z,20.09
2023-11-18T08:21:14.002Z,20.38
2023-11-18T08:24:04.659Z,20.57
2023-11-18T08:26:57.722Z,20.53
2023-11-18T08:29:33.938Z,20.63
2023-11-18T08:32:10.812Z,20.64
2023-11-18T08:34:43.132Z,20.72
2023-11-18T08:37:39.025Z,20.66
2023-11-18T08:40:19.437Z,20.64
2023-11-18T08:42:54.027Z,20.69
2023-11-18T08:45:34.977Z,20.65
2023-11-18T08:48:13.611Z,20.75
2023-11-18T08:50:42.679Z,21.11
2023-11-18T08:53:19.874Z,21.50
2023-11-18T08:55:55.891Z,21.84
2023-11-18T08:58:31.031Z,22.24
2023-11-18T09:01:18.328Z,22.50
2023-11-18T09:03:52.504Z,22.81
2023-11-18T09:06:30.320Z,23.14
2023-11-18T09:08:59.664Z,23.57
2023-11-18T09:11:37.230Z,23.91
2023-11-18T09:14:05.723Z,24.29
2023-11-18T09:16:36.302Z,24.62
2023-11-18T09:19:09.980Z,24.69
2023-11-18T09:21:41.891Z,24.68
2023-11-18T09:24:16.007Z,24.65
2023-11-18T09:26:52.971Z,24.55
2023-11-18T09:29:27.484Z,24.32
2023-11-18T09:32:07.605Z,24.54
2023-11-18T09:34:54.856Z,24.86
2023-11-18T09:37:24.654Z,25.14
2023-11-18T09:40:13.373Z,25.48
2023-11-18T09:42:45.156Z,25.81
2023-11-18T09:45:15.643Z,26.05
2023-11-18T09:47:49.041Z,26.29
2023-11-18T09:50:35.804Z,26.59
2023-11-18T09:53:20.803Z,26.78
2023-11-18T09:56:02.717Z,27.05
2023-11-18T09:58:50.380Z,27.26
2023-11-18T10:01:21.553Z,27.44
2023-11-18T10:03:56.265Z,27.55
2023-11-18T10:06:39.883Z,27.54
2023-11-18T10:09:17.474Z,27.49
2023-11-18T10:11:56.534Z,27.28
2023-11-18T10:14:31.222Z,27.37
2023-11-18T10:17:08.642Z,27.60
2023-11-18T10:20:04.211Z,27.99
2023-11-18T10:22:34.453Z,28.23
2023-11-18T10:25:19.132Z,28.60
2023-11-18T10:27:49.106Z,28.89
2023-11-18T10:30:29.313Z,28.98
2023-11-18T10:33:09.797Z,29.06
2023-11-18T10:35:42.377Z,29.33
2023-11-18T10:38:13.636Z,29.27
2023-11-18T10:40:52.705Z,29.32
2023-11-18T10:43:25.750Z,29.77
2023-11-18T10:46:18.328Z,29.92
2023-11-18T10:48:56.691Z,30.10
2023-11-18T10:51:37.524Z,29.66
2023-11-18T10:54:21.692Z,30.41
2023-11-18T10:57:01.155Z,30.58
2023-11-18T10:59:34.988Z,30.35
2023-11-18T11:02:22.795Z,30.73
2023-11-18T11:04:54.512Z,28.74
2023-11-18T11:07:25.332Z,27.75
2023-11-18T11:10:05.961Z,28.34
2023-11-18T11:12:53.808Z,28.79
2023-11-18T11:15:33.999Z,29.05
2023-11-18T11:18:19.553Z,26.72
2023-11-18T11:21:16.761Z,29.05
2023-11-18T11:23:58.244Z,29.48
2023-11-18T11:27:05.817Z,30.71
2023-11-18T11:30:46.857Z,30.68
2023-11-18T11:36:33.572Z,29.67
2023-11-18T11:39:21.085Z,30.18
2023-11-18T11:42:06.451Z,29.75
2023-11-18T11:44:55.355Z,29.82
2023-11-18T11:47:43.787Z,28.90
2023-11-18T11:50:40.566Z,29.52
2023-11-18T11:53:41.925Z,29.35
2023-11-18T11:56:22.711Z,30.61
2023-11-18T11:59:13.982Z,31.31
2023-11-18T12:01:59.498Z,31.19
2023-11-18T12:04:43.366Z,31.39
2023-11-18T12:07:24.433Z,31.86
2023-11-18T12:10:11.605Z,32.17
2023-11-18T12:12:43.889Z,32.62
2023-11-18T12:15:58.939Z,32.35
2023-11-18T12:18:28.499Z,33.41
2023-11-18T12:20:58.134Z,34.40
2023-11-18T12:23:28.891Z,33.33
2023-11-18T12:26:24.454Z,34.01
2023-11-18T12:29:41.214Z,32.07
2023-11-18T12:33:13.858Z,32.93
2023-11-18T12:36:48.600Z,33.15
2023-11-18T12:40:18.402Z,32.29
2023-11-18T12:43:15.053Z,32.22
2023-11-18T12:49:25.896Z,31.68
2023-11-18T12:52:20.330Z,31.28
2023-11-18T12:55:00.525Z,31.78
2023-11-18T12:57:40.198Z,31.30
2023-11-18T13:00:32.167Z,32.03
2023-11-18T13:03:06.247Z,31.97
2023-11-18T13:05:46.744Z,31.04
2023-11-18T13:08:24.365Z,30.96
2023-11-18T13:11:06.134Z,29.30
2023-11-18T13:13:45.879Z,30.95
2023-11-18T13:16:32.104Z,31.52
2023-11-18T13:19:08.818Z,31.50
2023-11-18T13:21:39.440Z,29.91
2023-11-18T13:24:20.134Z,30.16
2023-11-18T13:26:54.860Z,31.41
2023-11-18T13:29:35.524Z,30.06
2023-11-18T13:32:16.950Z,29.44
2023-11-18T13:34:53.935Z,30.54
2023-11-18T13:37:31.352Z,30.24
2023-11-18T13:40:18.754Z,29.25
2023-11-18T13:43:11.665Z,29.61
2023-11-18T13:45:52.557Z,30.12
2023-11-18T13:48:40.852Z,29.74
2023-11-18T13:51:39.264Z,28.14
2023-11-18T13:54:24.432Z,29.79
2023-11-18T13:57:00.900Z,29.85
2023-11-18T13:59:41.233Z,29.11
2023-11-18T14:02:12.349Z,28.14
2023-11-18T14:05:08.683Z,29.69
2023-11-18T14:07:50.672Z,29.88
2023-11-18T14:10:28.362Z,29.39
2023-11-18T14:16:11.883Z,28.51
2023-11-18T14:19:15.380Z,28.96
2023-11-18T14:21:57.814Z,28.33
2023-11-18T14:27:55.113Z,28.81
2023-11-18T14:30:37.544Z,28.16
2023-11-18T14:33:34.177Z,27.45
2023-11-18T14:36:21.188Z,26.71
2023-11-18T14:39:28.538Z,27.06
2023-11-18T14:45:37.453Z,26.47
2023-11-18T14:48:18.913Z,26.06
2023-11-18T14:51:33.185Z,26.48
2023-11-18T14:54:28.324Z,26.33
2023-11-18T15:00:42.905Z,25.67
2023-11-18T15:07:20.754Z,24.47
2023-11-18T15:10:37.595Z,24.29
2023-11-18T15:13:33.210Z,24.17
2023-11-18T15:19:42.914Z,24.04
2023-11-18T15:29:37.789Z,23.70
2023-11-18T15:35:25.574Z,23.29
2023-11-18T15:47:22.312Z,22.97
2023-11-18T15:50:36.768Z,22.88
2023-11-18T15:53:40.607Z,22.27
2023-11-18T15:56:24.066Z,22.74
2023-11-18T15:59:12.620Z,22.42
2023-11-18T16:02:08.521Z,21.92
2023-11-18T16:05:01.573Z,22.46
2023-11-18T16:07:42.370Z,22.53
2023-11-18T16:10:42.482Z,22.22
2023-11-18T16:13:47.442Z,21.67
2023-11-18T16:19:41.104Z,21.88
2023-11-18T16:22:41.139Z,22.01
2023-11-18T16:28:59.903Z,22.31
2023-11-18T16:32:23.677Z,22.20
2023-11-18T16:35:22.765Z,22.35
2023-11-18T16:38:32.268Z,21.89
2023-11-18T16:41:41.045Z,21.42
2023-11-18T16:44:53.674Z,21.77
2023-11-18T16:51:26.474Z,21.87
2023-11-18T16:54:48.140Z,21.17
2023-11-18T16:57:53.850Z,21.28
2023-11-18T17:07:40.512Z,21.18
2023-11-18T17:10:19.032Z,21.18
2023-11-18T17:13:00.573Z,21.67
2023-11-18T17:16:23.013Z,21.56
2023-11-18T17:19:20.268Z,21.73
2023-11-18T17:22:17.171Z,21.07
2023-11-18T17:27:56.329Z,21.10
2023-11-18T17:30:49.560Z,21.37
2023-11-18T17:33:38.195Z,21.23
2023-11-18T17:36:29.889Z,21.57
2023-11-18T17:39:24.563Z,21.09
2023-11-18T17:42:28.442Z,21.29
2023-11-18T17:48:38.257Z,21.05
2023-11-18T17:51:24.823Z,21.22
2023-11-18T17:54:34.598Z,21.24
2023-11-18T17:57:34.298Z,21.32
2023-11-18T18:00:42.441Z,21.03
2023-11-18T18:06:38.841Z,21.15
2023-11-18T18:12:48.389Z,21.29
2023-11-18T18:15:52.586Z,21.35
2023-11-18T18:19:05.237Z,21.30
2023-11-18T18:22:17.922Z,20.70
2023-11-18T18:25:16.630Z,20.88
2023-11-18T18:28:19.888Z,20.99
2023-11-18T18:31:16.175Z,20.85
2023-11-18T18:33:56.951Z,21.07
2023-11-18T18:36:37.457Z,20.71
2023-11-18T18:39:17.435Z,20.97
2023-11-18T18:42:05.413Z,20.82
2023-11-18T18:44:48.787Z,20.83
2023-11-18T18:47:22.148Z,21.01
2023-11-18T18:50:21.017Z,20.44
2023-11-18T18:53:01.812Z,20.45
2023-11-18T18:55:40.319Z,20.87
2023-11-18T18:58:17.192Z,20.94
2023-11-18T19:01:01.004Z,20.99
2023-11-18T19:03:54.344Z,20.59
2023-11-18T19:06:33.365Z,20.80
2023-11-18T19:09:15.064Z,20.49
2023-11-18T19:12:03.419Z,20.68
2023-11-18T19:14:54.827Z,20.77
2023-11-18T19:17:24.733Z,20.82
2023-11-18T19:20:20.648Z,20.83
2023-11-18T19:22:57.652Z,20.67
2023-11-18T19:25:31.787Z,20.54
2023-11-18T19:28:13.266Z,20.36
2023-11-18T19:30:51.635Z,20.68
2023-11-18T19:33:36.692Z,20.20
2023-11-18T19:36:37.642Z,20.74
2023-11-18T19:39:21.637Z,20.83
2023-11-18T19:42:04.313Z,20.91
2023-11-18T19:44:39.187Z,20.86
2023-11-18T19:47:26.217Z,20.74
2023-11-18T19:50:15.101Z,20.62
2023-11-18T19:52:57.873Z,20.68
2023-11-18T19:55:37.656Z,20.82
2023-11-18T19:58:18.125Z,20.91
2023-11-18T20:01:01.586Z,21.06
2023-11-18T20:03:33.528Z,21.13
2023-11-18T20:06:11.521Z,21.07
2023-11-18T20:08:40.239Z,21.01
2023-11-18T20:11:26.224Z,21.16
2023-11-18T20:14:12.236Z,21.29
2023-11-18T20:16:53.725Z,21.38
2023-11-18T20:20:19.246Z,21.45
2023-11-18T20:23:02.719Z,21.48
2023-11-18T20:25:46.294Z,21.51
2023-11-18T20:28:24.276Z,21.57
2023-11-18T20:30:59.283Z,21.60
2023-11-18T20:33:30.882Z,21.61
2023-11-18T20:36:30.827Z,21.62
2023-11-18T20:39:24.077Z,21.64
2023-11-18T20:42:15.926Z,21.63
2023-11-18T20:45:15.784Z,21.60
2023-11-18T20:47:59.046Z,21.60
2023-11-18T20:50:52.896Z,21.59
2023-11-18T20:53:35.313Z,21.55
2023-11-18T20:56:38.723Z,21.58
2023-11-18T20:59:30.929Z,21.58
2023-11-18T21:05:31.812Z,21.59
2023-11-18T21:08:28.486Z,21.49
2023-11-18T21:17:50.835Z,21.38
2023-11-18T21:23:51.655Z,21.30
2023-11-18T21:27:23.459Z,21.29
2023-11-18T21:30:12.493Z,21.32
2023-11-18T21:33:17.783Z,21.32
2023-11-18T21:36:08.635Z,21.35
2023-11-18T21:42:24.796Z,21.23
2023-11-18T21:45:06.801Z,21.21
2023-11-18T21:48:19.694Z,21.02
2023-11-18T21:51:21.899Z,20.74
2023-11-18T21:54:16.579Z,20.55
2023-11-18T21:56:59.944Z,20.53
2023-11-18T21:59:46.486Z,20.48
2023-11-18T22:03:08.965Z,20.40
2023-11-18T22:06:31.611Z,20.58
2023-11-18T22:09:19.225Z,20.65
2023-11-18T22:11:53.792Z,20.77
2023-11-18T22:14:57.076Z,20.86
2023-11-18T22:17:54.229Z,20.92
2023-11-18T22:20:57.605Z,20.97
2023-11-18T22:31:22.959Z,20.97
2023-11-18T22:34:41.128Z,21.01
2023-11-18T22:37:37.675Z,20.97
2023-11-18T22:40:44.465Z,20.85
2023-11-18T22:43:41.483Z,20.66
2023-11-18T22:46:40.055Z,20.73
2023-11-18T22:52:47.402Z,20.76
2023-11-18T22:55:24.361Z,20.76
2023-11-18T22:58:06.605Z,20.74
2023-11-18T23:01:13.284Z,20.67
2023-11-18T23:04:06.131Z,20.65
2023-11-18T23:06:52.166Z,20.58
2023-11-18T23:09:42.778Z,20.45
2023-11-18T23:12:34.134Z,20.51
2023-11-18T23:15:20.359Z,20.52
2023-11-18T23:18:07.454Z,20.50
2023-11-18T23:20:58.861Z,20.56
2023-11-18T23:23:37.699Z,20.57
2023-11-18T23:26:18.007Z,20.51
2023-11-18T23:29:04.542Z,20.46
2023-11-18T23:31:38.333Z,20.42
2023-11-18T23:34:15.841Z,20.35
2023-11-18T23:37:01.459Z,20.34
2023-11-18T23:39:41.239Z,20.51
2023-11-18T23:42:16.824Z,20.46
2023-11-18T23:44:53.142Z,20.47
2023-11-18T23:47:22.978Z,20.57
2023-11-18T23:49:57.807Z,20.51
2023-11-18T23:52:28.482Z,20.56
2023-11-18T23:55:04.179Z,20.55
2023-11-18T23:58:00.875Z,20.51
